Time;durP1;ratioP1;P1;durP2;ratioP2;P2;SDS_P1;SDS_P2;PMS_P1;PMS_P2;Temp;Humidity;BMP_temperature;BMP_pressure;BME280_temperature;BME280_humidity;BME280_pressure;Samples;Min_cycle;Max_cycle;Signal;HPM_P1;HPM_P2
2022/07/14 00:01:50;;;;;;;6.45;1.65;;;14.50;99.90;;;;;;5063392;28;20036;-78
2022/07/14 00:04:16;;;;;;;9.75;2.47;;;14.60;99.90;;;;;;5079837;28;20511;-78
2022/07/14 00:06:41;;;;;;;6.03;1.58;;;14.60;99.90;;;;;;5079510;28;20044;-78
2022/07/14 00:09:07;;;;;;;7.20;1.83;;;14.60;99.90;;;;;;5078946;28;20146;-77
2022/07/14 00:11:33;;;;;;;13.20;2.38;;;14.50;99.90;;;;;;5061623;28;20086;-77
2022/07/14 00:13:58;;;;;;;6.72;1.48;;;14.50;99.90;;;;;;5080077;28;20039;-78
2022/07/14 00:16:25;;;;;;;10.73;1.90;;;14.50;99.90;;;;;;5062312;28;20036;-78
2022/07/14 00:18:51;;;;;;;5.65;1.70;;;14.50;99.90;;;;;;5080106;28;20330;-78
2022/07/14 00:21:17;;;;;;;12.20;1.73;;;14.40;99.90;;;;;;5064111;28;20245;-78
2022/07/14 00:23:44;;;;;;;8.75;1.80;;;14.50;99.90;;;;;;5063337;28;20043;-78
2022/07/14 00:26:11;;;;;;;7.40;2.08;;;14.40;99.90;;;;;;5079294;28;20036;-78
2022/07/14 00:28:37;;;;;;;8.52;1.90;;;14.30;99.90;;;;;;5077822;28;20439;-78
2022/07/14 00:31:10;;;;;;;10.65;2.00;;;14.40;99.90;;;;;;5097882;28;20075;-78
2022/07/14 00:33:36;;;;;;;8.35;2.08;;;14.30;99.90;;;;;;5063420;28;20047;-78
2022/07/14 00:36:02;;;;;;;10.93;1.90;;;14.30;99.90;;;;;;5079111;28;20502;-78
2022/07/14 00:38:28;;;;;;;7.18;1.92;;;14.20;99.90;;;;;;5077935;28;20047;-78
2022/07/14 00:40:54;;;;;;;5.35;1.65;;;14.20;99.90;;;;;;5078995;28;20182;-78
2022/07/14 00:43:19;;;;;;;7.20;2.17;;;14.10;99.90;;;;;;5078459;28;20036;-78
2022/07/14 00:45:45;;;;;;;11.15;1.83;;;14.00;99.90;;;;;;5062229;28;20097;-78
2022/07/14 00:48:16;;;;;;;5.38;1.88;;;14.00;99.90;;;;;;5067120;28;20424;-78
2022/07/14 00:50:44;;;;;;;7.28;1.77;;;14.00;99.90;;;;;;5089082;28;20036;-77
2022/07/14 00:53:10;;;;;;;5.03;1.70;;;13.90;99.90;;;;;;5093643;28;20100;-77
2022/07/14 00:55:37;;;;;;;5.93;2.20;;;13.80;99.90;;;;;;5079070;28;20456;-78
2022/07/14 00:58:03;;;;;;;5.68;1.92;;;13.80;99.90;;;;;;5078123;28;20039;-78
2022/07/14 01:00:28;;;;;;;7.10;1.70;;;13.80;99.90;;;;;;5077954;28;20043;-77
2022/07/14 01:02:54;;;;;;;9.10;2.45;;;13.60;99.90;;;;;;5061358;28;20259;-77
2022/07/14 01:05:19;;;;;;;7.65;2.10;;;13.60;99.90;;;;;;5078341;28;20044;-78
2022/07/14 01:07:47;;;;;;;10.15;2.45;;;13.60;99.90;;;;;;5076780;28;20509;-78
2022/07/14 01:10:13;;;;;;;6.28;2.05;;;13.50;99.90;;;;;;5077507;28;20113;-78
2022/07/14 01:12:44;;;;;;;12.48;2.28;;;13.50;99.90;;;;;;5078087;28;20083;-78
2022/07/14 01:15:10;;;;;;;7.88;1.90;;;13.40;99.90;;;;;;5078261;28;20043;-78
2022/07/14 01:17:36;;;;;;;7.97;2.17;;;13.40;99.90;;;;;;5061653;28;20044;-77
2022/07/14 01:20:04;;;;;;;5.10;1.70;;;13.40;99.90;;;;;;5078154;28;20567;-76
2022/07/14 01:22:29;;;;;;;3.75;1.67;;;13.30;99.90;;;;;;5077912;28;20044;-78
2022/07/14 01:24:55;;;;;;;6.93;2.08;;;13.30;99.90;;;;;;5061183;28;20348;-78
2022/07/14 01:27:20;;;;;;;11.00;2.53;;;13.30;99.90;;;;;;5077994;28;20126;-77
2022/07/14 01:29:46;;;;;;;9.82;2.42;;;13.30;99.90;;;;;;5077608;28;20051;-78
2022/07/14 01:32:11;;;;;;;10.85;3.03;;;13.20;99.90;;;;;;5077484;28;20047;-78
2022/07/14 01:34:37;;;;;;;11.82;2.10;;;13.30;99.90;;;;;;5077732;28;20405;-78
2022/07/14 01:37:03;;;;;;;7.78;1.88;;;13.30;99.90;;;;;;5077591;28;20047;-77
2022/07/14 01:39:28;;;;;;;4.50;2.00;;;13.20;99.90;;;;;;5077420;28;20036;-78
2022/07/14 01:41:54;;;;;;;6.32;2.15;;;13.30;99.90;;;;;;5077253;28;20058;-78
2022/07/14 01:44:21;;;;;;;13.50;2.55;;;13.20;99.90;;;;;;5076785;28;20040;-77
2022/07/14 01:46:47;;;;;;;8.93;2.55;;;13.00;99.90;;;;;;5076582;28;20052;-78
2022/07/14 01:49:12;;;;;;;8.32;1.95;;;13.10;99.90;;;;;;5076862;28;20109;-78
2022/07/14 01:51:38;;;;;;;10.77;2.55;;;13.10;99.90;;;;;;5076578;28;20565;-78
2022/07/14 01:54:07;;;;;;;7.90;1.88;;;13.10;99.90;;;;;;5076753;28;20123;-77
2022/07/14 01:56:38;;;;;;;12.27;2.17;;;13.00;99.90;;;;;;5077000;28;20044;-78
2022/07/14 01:59:04;;;;;;;5.53;2.10;;;12.90;99.90;;;;;;5076713;28;20044;-77
2022/07/14 02:01:42;;;;;;;8.27;1.98;;;12.90;99.90;;;;;;5077090;28;20044;-77
2022/07/14 02:04:10;;;;;;;7.22;2.22;;;12.90;99.90;;;;;;5076933;28;20119;-78
2022/07/14 02:06:36;;;;;;;8.63;2.33;;;12.80;99.90;;;;;;5076660;28;20040;-78
2022/07/14 02:09:02;;;;;;;8.75;2.35;;;12.90;99.90;;;;;;5075997;28;20495;-77
2022/07/14 02:14:12;;;;;;;7.47;2.30;;;12.80;99.90;;;;;;5075210;28;20177;-76
2022/07/14 02:16:38;;;;;;;7.32;2.28;;;12.80;99.90;;;;;;5076279;28;20085;-77
2022/07/14 02:19:03;;;;;;;8.18;2.53;;;12.80;99.90;;;;;;5075828;28;20039;-78
2022/07/14 02:21:29;;;;;;;12.27;2.60;;;12.80;99.90;;;;;;5075633;28;20044;-77
2022/07/14 02:23:56;;;;;;;7.78;2.35;;;12.80;99.90;;;;;;5059160;28;20036;-77
2022/07/14 02:26:22;;;;;;;6.38;2.15;;;12.70;99.90;;;;;;5077048;28;20143;-77
2022/07/14 02:28:48;;;;;;;5.78;2.30;;;12.60;99.90;;;;;;5075638;28;20044;-77
2022/07/14 02:31:15;;;;;;;8.80;2.17;;;12.70;99.90;;;;;;5075347;28;20153;-78
2022/07/14 02:33:41;;;;;;;14.63;3.08;;;12.70;99.90;;;;;;5076374;28;20036;-78
2022/07/14 02:36:07;;;;;;;10.32;2.33;;;12.60;99.90;;;;;;5076705;28;20471;-78
2022/07/14 02:38:33;;;;;;;8.02;2.00;;;12.50;99.90;;;;;;5076813;28;20036;-78
2022/07/14 02:40:59;;;;;;;9.43;1.77;;;12.60;99.90;;;;;;5058913;28;20039;-77
2022/07/14 02:43:26;;;;;;;11.05;2.50;;;12.50;99.90;;;;;;5058682;28;20036;-77
2022/07/14 02:45:52;;;;;;;8.10;2.50;;;12.50;99.90;;;;;;5074914;28;20071;-78
2022/07/14 02:48:17;;;;;;;5.07;2.10;;;12.50;99.90;;;;;;5058956;28;20094;-78
2022/07/14 02:50:43;;;;;;;7.30;2.22;;;12.50;99.90;;;;;;5074273;28;20063;-78
2022/07/14 02:53:09;;;;;;;8.77;2.38;;;12.40;99.90;;;;;;5074350;28;20044;-77
2022/07/14 02:55:35;;;;;;;6.85;2.60;;;12.50;99.90;;;;;;5073802;28;20094;-77
2022/07/14 02:58:01;;;;;;;9.15;2.78;;;12.40;99.90;;;;;;5074086;28;20040;-78
2022/07/14 03:00:27;;;;;;;12.43;2.70;;;12.40;99.90;;;;;;5073945;28;20101;-78
2022/07/14 03:02:54;;;;;;;9.45;2.40;;;12.40;99.90;;;;;;5074539;28;20406;-78
2022/07/14 03:05:20;;;;;;;8.55;2.47;;;12.40;99.90;;;;;;5074661;28;20044;-77
2022/07/14 03:07:45;;;;;;;10.00;2.80;;;12.30;99.90;;;;;;5074059;28;20044;-78
2022/07/14 03:10:11;;;;;;;10.75;2.78;;;12.30;99.90;;;;;;5074968;28;20066;-78
2022/07/14 03:12:36;;;;;;;8.05;2.28;;;12.30;99.90;;;;;;5075195;28;20486;-78
2022/07/14 03:15:03;;;;;;;5.13;1.75;;;12.20;99.90;;;;;;5074260;28;20459;-77
2022/07/14 03:17:28;;;;;;;4.30;1.77;;;12.30;99.90;;;;;;5073188;28;20028;-77
2022/07/14 03:19:54;;;;;;;4.32;1.98;;;12.30;99.90;;;;;;5074289;28;20085;-77
2022/07/14 03:22:20;;;;;;;4.60;2.10;;;12.20;99.90;;;;;;5074358;28;20055;-77
2022/07/14 03:24:45;;;;;;;7.25;2.53;;;12.20;99.90;;;;;;5074141;28;20071;-78
2022/07/14 03:27:12;;;;;;;6.97;2.38;;;12.20;99.90;;;;;;5092036;28;20040;-77
2022/07/14 03:29:41;;;;;;;6.80;2.22;;;12.10;99.90;;;;;;5073888;28;20455;-78
2022/07/14 03:32:07;;;;;;;6.07;2.35;;;12.20;99.90;;;;;;5074094;28;20048;-77
2022/07/14 03:34:33;;;;;;;8.02;2.53;;;12.20;99.90;;;;;;5074015;28;20075;-77
2022/07/14 03:36:59;;;;;;;9.20;2.25;;;12.10;99.90;;;;;;5073690;28;20071;-77
2022/07/14 03:39:26;;;;;;;6.60;2.45;;;12.10;99.90;;;;;;5073196;28;20490;-77
2022/07/14 03:41:52;;;;;;;11.50;2.65;;;12.10;99.90;;;;;;5073081;28;20092;-77
2022/07/14 03:44:18;;;;;;;8.20;2.78;;;12.10;99.90;;;;;;5073675;28;20504;-78
2022/07/14 03:46:43;;;;;;;7.80;2.75;;;12.10;99.90;;;;;;5073201;28;20051;-77
2022/07/14 03:49:09;;;;;;;8.68;2.60;;;12.10;99.90;;;;;;5073190;28;20040;-78
2022/07/14 03:51:39;;;;;;;9.10;2.72;;;12.10;99.90;;;;;;5073065;28;20055;-76
2022/07/14 03:54:05;;;;;;;6.25;2.50;;;12.10;99.90;;;;;;5073499;28;20040;-77
2022/07/14 03:56:31;;;;;;;3.90;2.00;;;12.00;99.90;;;;;;5056935;28;20044;-77
2022/07/14 03:58:57;;;;;;;8.95;2.92;;;12.00;99.90;;;;;;5056077;28;20036;-75
2022/07/14 04:01:22;;;;;;;10.20;2.22;;;12.10;99.90;;;;;;5072699;28;20046;-77
2022/07/14 04:03:48;;;;;;;8.63;2.60;;;12.10;99.90;;;;;;5073118;28;20044;-78
2022/07/14 04:06:14;;;;;;;7.18;2.33;;;12.10;99.90;;;;;;5056594;28;20479;-76
2022/07/14 04:08:40;;;;;;;9.50;2.63;;;12.10;99.90;;;;;;5073278;28;20085;-77
2022/07/14 04:11:06;;;;;;;8.10;2.75;;;12.20;99.90;;;;;;5072596;28;20043;-77
2022/07/14 04:13:32;;;;;;;5.80;2.25;;;12.10;99.90;;;;;;5073053;28;20572;-77
2022/07/14 04:15:58;;;;;;;5.40;2.55;;;12.20;99.90;;;;;;5072795;28;20337;-76
2022/07/14 04:18:24;;;;;;;9.88;2.92;;;12.20;99.90;;;;;;5072556;28;20609;-77
2022/07/14 04:20:50;;;;;;;6.95;2.20;;;12.10;99.90;;;;;;5090514;28;20072;-77
2022/07/14 04:23:16;;;;;;;4.22;2.05;;;12.20;99.90;;;;;;5072527;28;20051;-77
2022/07/14 04:25:42;;;;;;;5.93;2.40;;;12.20;99.90;;;;;;5072733;28;20040;-78
2022/07/14 04:28:08;;;;;;;7.68;3.10;;;12.20;99.90;;;;;;5073608;28;20038;-77
2022/07/14 04:30:33;;;;;;;4.80;2.08;;;12.30;99.90;;;;;;5076171;28;20040;-77
2022/07/14 04:32:59;;;;;;;4.25;2.15;;;12.20;99.90;;;;;;5059431;28;20525;-77
2022/07/14 04:35:25;;;;;;;5.68;2.17;;;12.30;99.90;;;;;;5059562;28;20040;-77
2022/07/14 04:37:50;;;;;;;5.80;2.13;;;12.30;99.90;;;;;;5094001;28;20040;-77
2022/07/14 04:40:16;;;;;;;6.45;2.85;;;12.30;99.90;;;;;;5075857;28;20040;-77
2022/07/14 04:42:41;;;;;;;11.85;4.13;;;12.40;99.90;;;;;;5077024;28;20673;-80
2022/07/14 04:45:08;;;;;;;9.35;2.80;;;12.40;99.90;;;;;;5076535;28;20051;-80
2022/07/14 04:47:33;;;;;;;8.70;3.22;;;12.50;99.90;;;;;;5077248;28;20082;-80
2022/07/14 04:52:47;;;;;;;10.10;3.25;;;12.60;99.90;;;;;;5078756;28;20059;-79
2022/07/14 04:55:14;;;;;;;6.90;2.72;;;12.70;99.90;;;;;;5078776;28;20471;-79
2022/07/14 04:57:40;;;;;;;7.80;3.42;;;12.80;99.90;;;;;;5078254;28;20064;-80
2022/07/14 05:00:07;;;;;;;11.48;2.65;;;12.90;99.90;;;;;;5078877;28;20039;-80
2022/07/14 05:02:33;;;;;;;8.85;2.83;;;13.10;99.90;;;;;;5088479;28;20055;-79
2022/07/14 05:04:59;;;;;;;9.55;3.00;;;13.40;99.90;;;;;;5087808;28;20107;-80
2022/07/14 05:07:24;;;;;;;8.10;3.05;;;13.50;99.90;;;;;;5086158;28;20036;-80
2022/07/14 05:09:50;;;;;;;12.93;5.28;;;13.60;99.90;;;;;;5077957;28;20044;-80
2022/07/14 05:12:17;;;;;;;15.07;8.02;;;13.70;99.90;;;;;;5077078;28;20036;-79
2022/07/14 05:14:43;;;;;;;9.77;4.00;;;13.80;99.90;;;;;;5076956;28;20040;-79
2022/07/14 05:17:09;;;;;;;7.35;3.47;;;14.10;99.90;;;;;;5077488;28;20032;-80
2022/07/14 05:19:35;;;;;;;8.70;3.20;;;14.70;99.90;;;;;;5077579;28;20047;-80
2022/07/14 05:22:01;;;;;;;8.63;3.13;;;15.40;99.90;;;;;;5077829;28;20487;-80
2022/07/14 05:24:27;;;;;;;8.57;2.75;;;16.10;99.90;;;;;;5077695;28;20457;-80
2022/07/14 05:26:52;;;;;;;8.38;3.45;;;16.70;99.90;;;;;;5076648;28;20044;-81
2022/07/14 05:29:18;;;;;;;10.00;2.90;;;17.20;99.90;;;;;;5077497;28;20056;-80
2022/07/14 05:31:43;;;;;;;7.95;2.58;;;17.60;99.90;;;;;;5078074;28;20051;-80
2022/07/14 05:34:09;;;;;;;8.13;2.15;;;17.70;99.90;;;;;;5077807;28;20487;-80
2022/07/14 05:36:35;;;;;;;11.90;2.50;;;17.50;99.90;;;;;;5076811;28;20040;-81
2022/07/14 05:39:01;;;;;;;9.07;2.50;;;17.40;99.90;;;;;;5075871;28;20036;-81
2022/07/14 05:41:27;;;;;;;8.77;2.33;;;17.60;99.90;;;;;;5077300;28;20047;-80
2022/07/14 05:43:53;;;;;;;9.27;2.38;;;18.00;99.90;;;;;;5076875;28;20085;-81
2022/07/14 05:46:18;;;;;;;5.65;2.10;;;18.50;99.90;;;;;;5074120;28;20467;-81
2022/07/14 05:48:44;;;;;;;7.60;2.45;;;18.90;99.90;;;;;;5077187;28;20036;-81
2022/07/14 05:51:15;;;;;;;7.03;1.90;;;19.30;99.90;;;;;;5077421;28;20539;-81
2022/07/14 05:53:42;;;;;;;6.30;1.98;;;19.60;99.90;;;;;;5061731;28;20052;-81
2022/07/14 05:56:10;;;;;;;7.22;2.47;;;20.00;99.90;;;;;;5077999;28;20048;-81
2022/07/14 05:58:36;;;;;;;6.55;2.13;;;20.20;99.90;;;;;;5059457;28;20039;-80
2022/07/14 06:01:04;;;;;;;11.73;1.90;;;20.10;99.90;;;;;;5094582;28;20091;-81
2022/07/14 06:03:30;;;;;;;8.75;2.10;;;20.00;99.90;;;;;;5060876;28;20103;-81
2022/07/14 06:05:58;;;;;;;10.30;1.90;;;19.80;99.90;;;;;;5076884;28;20094;-81
2022/07/14 06:08:24;;;;;;;9.88;1.90;;;19.50;99.90;;;;;;5076464;28;20036;-81
2022/07/14 06:10:50;;;;;;;5.85;1.45;;;19.20;99.90;;;;;;5093800;28;20036;-81
2022/07/14 06:13:16;;;;;;;7.72;2.30;;;19.20;99.90;;;;;;5075976;28;20109;-81
2022/07/14 06:15:43;;;;;;;5.57;1.60;;;19.20;99.90;;;;;;5076477;28;20048;-82
2022/07/14 06:18:10;;;;;;;4.53;1.63;;;19.30;99.90;;;;;;5093609;28;20101;-81
2022/07/14 06:20:36;;;;;;;10.20;2.22;;;19.40;99.90;;;;;;5057639;28;20032;-78
2022/07/14 06:23:01;;;;;;;5.93;2.30;;;19.30;99.90;;;;;;5072173;28;20035;-80
2022/07/14 06:25:27;;;;;;;8.63;2.22;;;19.10;99.90;;;;;;5091501;28;20453;-81
2022/07/14 06:27:52;;;;;;;8.48;2.28;;;18.90;99.90;;;;;;5058056;28;20126;-81
2022/07/14 06:30:18;;;;;;;9.00;2.13;;;18.70;99.90;;;;;;5071980;28;20039;-80
2022/07/14 06:32:44;;;;;;;9.55;1.85;;;18.60;99.90;;;;;;5074954;28;20414;-81
2022/07/14 06:35:11;;;;;;;8.77;1.75;;;18.40;99.90;;;;;;5056862;28;20042;-80
2022/07/14 06:37:37;;;;;;;5.50;1.42;;;18.60;99.90;;;;;;5045637;28;20127;-80
2022/07/14 06:40:05;;;;;;;4.18;1.30;;;19.20;99.90;;;;;;5055079;28;20067;-81
2022/07/14 06:42:32;;;;;;;8.20;1.77;;;20.00;99.90;;;;;;5037930;28;20488;-82
2022/07/14 06:44:57;;;;;;;13.00;2.20;;;20.80;99.90;;;;;;5065860;28;20093;-82
2022/07/14 06:47:23;;;;;;;6.45;1.40;;;21.60;99.90;;;;;;5056405;28;20040;-82
2022/07/14 06:49:48;;;;;;;8.45;1.48;;;22.10;99.90;;;;;;5091926;28;20044;-82
2022/07/14 06:52:14;;;;;;;4.30;1.48;;;22.40;99.90;;;;;;5073794;28;20040;-81
2022/07/14 06:54:40;;;;;;;6.10;1.25;;;22.50;99.90;;;;;;5091882;28;20075;-82
2022/07/14 06:57:05;;;;;;;4.18;1.13;;;22.70;99.90;;;;;;5090763;28;20031;-81
2022/07/14 06:59:31;;;;;;;5.47;1.20;;;22.90;99.90;;;;;;5081746;28;20123;-80
2022/07/14 07:01:57;;;;;;;5.13;1.48;;;22.90;99.90;;;;;;5072212;28;20510;-80
2022/07/14 07:04:23;;;;;;;6.05;1.45;;;22.60;99.90;;;;;;5041487;28;20036;-80
2022/07/14 07:06:50;;;;;;;5.60;1.63;;;22.00;99.90;;;;;;5058709;28;20043;-81
2022/07/14 07:09:18;;;;;;;7.45;1.58;;;21.60;99.90;;;;;;5074936;28;20395;-80
2022/07/14 07:11:45;;;;;;;4.90;1.30;;;21.30;99.90;;;;;;5056431;28;20036;-80
2022/07/14 07:14:12;;;;;;;7.90;1.40;;;20.90;99.90;;;;;;5092188;28;20055;-80
2022/07/14 07:16:38;;;;;;;5.75;1.60;;;20.50;99.90;;;;;;5073646;28;20036;-80
2022/07/14 07:19:04;;;;;;;6.10;0.98;;;20.40;99.90;;;;;;5072167;28;20051;-80
2022/07/14 07:21:30;;;;;;;4.63;1.20;;;20.20;99.90;;;;;;5072875;28;20044;-80
2022/07/14 07:23:56;;;;;;;8.18;1.60;;;20.00;99.90;;;;;;5057227;28;20499;-80
2022/07/14 07:26:25;;;;;;;6.78;1.40;;;19.80;99.90;;;;;;5058145;28;20522;-80
2022/07/14 07:28:54;;;;;;;6.47;1.30;;;20.10;99.90;;;;;;5057543;28;20043;-81
2022/07/14 07:31:20;;;;;;;6.07;1.13;;;20.80;99.90;;;;;;5073723;28;20067;-80
2022/07/14 07:33:46;;;;;;;4.72;0.98;;;21.30;99.90;;;;;;5061073;28;20068;-81
2022/07/14 07:36:12;;;;;;;5.90;1.05;;;21.10;99.90;;;;;;5055047;28;20487;-80
2022/07/14 07:38:38;;;;;;;5.90;0.85;;;20.70;99.90;;;;;;5055836;28;20476;-81
2022/07/14 07:41:04;;;;;;;5.35;0.85;;;20.30;99.90;;;;;;5053288;28;20067;-82
2022/07/14 07:43:30;;;;;;;4.90;0.88;;;20.30;99.90;;;;;;5063185;28;20086;-81
2022/07/14 07:45:56;;;;;;;6.45;1.17;;;20.50;99.90;;;;;;5071908;28;20042;-82
2022/07/14 07:48:21;;;;;;;2.50;0.70;;;20.70;99.90;;;;;;5089177;28;20042;-82
2022/07/14 07:50:48;;;;;;;5.95;1.00;;;20.80;99.90;;;;;;5074498;28;20084;-82
2022/07/14 07:53:14;;;;;;;4.10;1.00;;;20.80;99.90;;;;;;5090602;28;20245;-80
2022/07/14 07:55:41;;;;;;;7.70;0.90;;;21.30;99.90;;;;;;5054899;28;20457;-81
2022/07/14 07:58:07;;;;;;;2.40;0.68;;;21.90;99.90;;;;;;5072467;28;20491;-81
2022/07/14 08:00:34;;;;;;;5.13;0.80;;;22.50;99.90;;;;;;5061647;28;20074;-81
2022/07/14 08:03:01;;;;;;;4.07;1.00;;;23.00;99.90;;;;;;5081444;28;20525;-82
2022/07/14 08:05:27;;;;;;;5.32;0.80;;;23.50;99.90;;;;;;5094270;28;20040;-80
2022/07/14 08:07:53;;;;;;;4.43;1.13;;;23.90;99.90;;;;;;5074077;28;20055;-81
2022/07/14 08:10:19;;;;;;;4.35;0.70;;;24.10;99.40;;;;;;5068338;28;20044;-81
2022/07/14 08:12:46;;;;;;;3.22;0.50;;;24.30;97.70;;;;;;5056874;28;20037;-82
2022/07/14 08:15:13;;;;;;;5.07;1.02;;;24.50;96.30;;;;;;5070837;28;20071;-81
2022/07/14 08:17:39;;;;;;;4.80;0.93;;;24.60;95.50;;;;;;5076787;28;20047;-81
2022/07/14 08:20:07;;;;;;;8.40;1.10;;;24.70;94.70;;;;;;5075877;28;20035;-80
2022/07/14 08:22:34;;;;;;;4.72;0.82;;;24.80;93.10;;;;;;5076704;28;20115;-80
2022/07/14 08:25:00;;;;;;;2.35;0.60;;;25.00;93.40;;;;;;5074529;28;20101;-80
2022/07/14 08:27:26;;;;;;;1.67;0.45;;;25.00;91.20;;;;;;5073791;28;20055;-81
2022/07/14 08:29:53;;;;;;;4.40;0.77;;;25.00;88.80;;;;;;5056592;28;20568;-81
2022/07/14 08:32:40;;;;;;;2.15;0.70;;;24.70;88.00;;;;;;5060494;28;20085;-81
2022/07/14 08:35:09;;;;;;;4.20;0.80;;;24.60;83.60;;;;;;5059959;28;20036;-80
2022/07/14 08:37:35;;;;;;;4.60;1.00;;;24.60;90.70;;;;;;5051733;28;20035;-82
2022/07/14 08:40:02;;;;;;;3.78;0.70;;;24.70;91.20;;;;;;5076561;28;20605;-81
2022/07/14 08:42:29;;;;;;;5.55;2.33;;;24.50;90.30;;;;;;5074848;28;20090;-81
2022/07/14 08:44:55;;;;;;;5.20;0.82;;;24.00;89.30;;;;;;5059005;28;20044;-81
2022/07/14 08:47:22;;;;;;;4.30;0.52;;;23.90;90.00;;;;;;5075088;28;20048;-81
2022/07/14 08:49:47;;;;;;;1.85;0.70;;;24.00;88.00;;;;;;5057976;28;20135;-81
2022/07/14 08:52:17;;;;;;;2.90;0.60;;;24.00;87.70;;;;;;5059355;28;20578;-81
2022/07/14 08:54:45;;;;;;;4.03;0.95;;;24.20;84.50;;;;;;5072731;28;20077;-81
2022/07/14 08:57:10;;;;;;;2.55;0.57;;;24.30;86.60;;;;;;5091615;28;20064;-80
2022/07/14 08:59:36;;;;;;;3.63;0.60;;;24.60;85.60;;;;;;5077390;28;20063;-80
2022/07/14 09:02:01;;;;;;;2.42;0.50;;;24.90;81.50;;;;;;5113862;28;20019;-81
2022/07/14 09:04:27;;;;;;;5.13;0.50;;;25.30;80.40;;;;;;5096359;28;20052;-81
2022/07/14 09:06:54;;;;;;;3.33;0.60;;;25.50;79.60;;;;;;5107885;28;20067;-81
2022/07/14 09:09:34;;;;;;;5.43;0.90;;;25.40;74.40;;;;;;5074505;28;20487;-80
2022/07/14 09:12:08;;;;;;;3.38;0.63;;;25.50;68.70;;;;;;5076384;28;20097;-81
2022/07/14 09:17:25;;;;;;;2.95;0.50;;;25.40;71.20;;;;;;5058888;28;20048;-80
2022/07/14 09:20:09;;;;;;;2.72;0.40;;;25.30;73.50;;;;;;5058021;28;20033;-80
2022/07/14 09:22:38;;;;;;;4.10;0.93;;;25.40;71.00;;;;;;5059424;28;20048;-80
2022/07/14 09:25:06;;;;;;;2.80;0.60;;;25.30;73.60;;;;;;5058663;28;20063;-81
2022/07/14 09:27:33;;;;;;;4.22;0.50;;;25.00;73.40;;;;;;5077392;28;20048;-81
2022/07/14 09:29:58;;;;;;;2.55;0.90;;;24.80;74.70;;;;;;5077438;28;20090;-81
2022/07/14 09:32:46;;;;;;;1.05;0.40;;;24.90;74.50;;;;;;5059585;28;20071;-81
2022/07/14 09:35:14;;;;;;;3.35;0.40;;;24.90;66.40;;;;;;5073709;28;20399;-81
2022/07/14 09:37:40;;;;;;;2.58;0.40;;;24.70;70.10;;;;;;5059907;28;20096;-81
2022/07/14 09:40:10;;;;;;;3.25;0.45;;;24.70;69.40;;;;;;5075761;28;20044;-81
2022/07/14 09:43:00;;;;;;;3.72;0.50;;;24.50;71.30;;;;;;5059322;28;20043;-81
2022/07/14 09:45:32;;;;;;;3.25;0.77;;;24.40;71.70;;;;;;5076010;28;20032;-81
2022/07/14 09:48:08;;;;;;;5.97;0.57;;;24.20;71.90;;;;;;5072959;28;20127;-80
2022/07/14 09:50:45;;;;;;;4.68;0.73;;;23.90;71.60;;;;;;5060790;28;20096;-78
2022/07/14 09:53:17;;;;;;;2.08;0.40;;;23.60;73.30;;;;;;5095329;28;20047;-80
2022/07/14 09:55:59;;;;;;;5.13;0.60;;;23.60;74.30;;;;;;5061098;28;20046;-80
2022/07/14 09:58:32;;;;;;;2.15;0.50;;;23.60;75.40;;;;;;5061218;28;20391;-79
2022/07/14 10:00:57;;;;;;;2.85;0.85;;;23.50;74.60;;;;;;5076616;28;20051;-79
2022/07/14 10:03:25;;;;;;;1.23;0.45;;;23.50;74.70;;;;;;5061164;28;20061;-79
2022/07/14 10:05:53;;;;;;;1.05;0.35;;;23.50;75.40;;;;;;5065022;28;20467;-79
2022/07/14 10:08:22;;;;;;;3.33;0.57;;;23.50;75.40;;;;;;5075666;28;20214;-80
2022/07/14 10:10:49;;;;;;;1.83;0.65;;;23.50;76.80;;;;;;5074224;28;20127;-79
2022/07/14 10:13:16;;;;;;;4.13;0.60;;;23.40;77.10;;;;;;5074179;28;20044;-80
2022/07/14 10:15:42;;;;;;;1.52;0.45;;;23.30;76.20;;;;;;5093064;28;20042;-79
2022/07/14 10:18:08;;;;;;;3.60;0.52;;;23.20;76.10;;;;;;5078203;28;20357;-79
2022/07/14 10:20:34;;;;;;;3.15;0.60;;;23.10;76.10;;;;;;5059068;28;20469;-80
2022/07/14 10:23:02;;;;;;;1.42;0.30;;;23.00;74.90;;;;;;5076873;28;20117;-79
2022/07/14 10:25:28;;;;;;;1.65;0.50;;;22.90;74.80;;;;;;5094441;28;20549;-79
2022/07/14 10:27:54;;;;;;;5.00;0.68;;;22.70;75.40;;;;;;5075882;28;20039;-80
2022/07/14 10:30:34;;;;;;;2.47;0.43;;;22.60;76.60;;;;;;5076506;28;20055;-79
2022/07/14 10:33:32;;;;;;;2.97;0.45;;;22.60;79.10;;;;;;5075930;28;20048;-80
2022/07/14 10:36:19;;;;;;;1.45;0.40;;;22.60;80.30;;;;;;5094242;28;20058;-79
2022/07/14 10:38:53;;;;;;;2.58;0.50;;;22.50;83.40;;;;;;5094318;28;20043;-79
2022/07/14 10:41:22;;;;;;;3.35;0.70;;;22.50;85.60;;;;;;5093195;28;20075;-79
2022/07/14 10:44:02;;;;;;;1.38;0.45;;;22.50;84.40;;;;;;5095149;28;20031;-80
2022/07/14 10:46:37;;;;;;;1.75;0.40;;;22.50;84.00;;;;;;5076480;28;20120;-80
2022/07/14 10:49:04;;;;;;;7.10;0.70;;;22.50;84.30;;;;;;5076080;28;20040;-80
2022/07/14 10:51:32;;;;;;;5.15;0.60;;;22.40;85.80;;;;;;5075160;28;20087;-79
2022/07/14 10:54:09;;;;;;;2.65;0.47;;;22.40;85.70;;;;;;5093010;28;20050;-79
2022/07/14 10:56:36;;;;;;;2.28;0.40;;;22.50;83.80;;;;;;5093123;28;20036;-79
2022/07/14 10:59:26;;;;;;;1.98;0.45;;;22.50;82.70;;;;;;5075921;28;20043;-79
2022/07/14 11:02:10;;;;;;;4.10;0.43;;;22.60;83.70;;;;;;5074979;28;20066;-80
2022/07/14 11:07:36;;;;;;;1.48;0.60;;;22.70;84.30;;;;;;5092771;28;20044;-79
2022/07/14 11:10:04;;;;;;;3.72;0.60;;;22.70;83.80;;;;;;5074394;28;20401;-80
2022/07/14 11:12:30;;;;;;;2.22;0.40;;;22.60;83.70;;;;;;5092863;28;20071;-80
2022/07/14 11:14:56;;;;;;;1.65;0.63;;;22.50;83.60;;;;;;5093422;28;20093;-80
2022/07/14 11:17:35;;;;;;;3.92;0.57;;;22.50;84.50;;;;;;5093014;28;20028;-79
2022/07/14 11:20:00;;;;;;;8.77;0.77;;;22.40;86.50;;;;;;5092852;28;20408;-79
2022/07/14 11:22:26;;;;;;;3.70;0.50;;;22.30;87.30;;;;;;5093206;28;20114;-80
2022/07/14 11:25:00;;;;;;;2.53;0.40;;;22.30;87.60;;;;;;5074435;28;20048;-79
2022/07/14 11:27:38;;;;;;;3.08;0.50;;;22.20;89.30;;;;;;5074797;28;20044;-80
2022/07/14 11:30:25;;;;;;;5.78;0.68;;;22.10;89.60;;;;;;5057700;28;20490;-79
2022/07/14 11:33:08;;;;;;;3.42;0.55;;;22.10;90.80;;;;;;5058149;28;20127;-79
2022/07/14 11:38:38;;;;;;;;;;;22.10;91.00;;;;;;5077668;28;20044;-80
2022/07/14 11:41:09;;;;;;;2.45;0.50;;;22.20;92.10;;;;;;5077952;28;19954;-79
2022/07/14 11:43:36;;;;;;;3.65;0.45;;;22.10;91.20;;;;;;5062079;28;20044;-80
2022/07/14 11:46:15;;;;;;;1.98;0.50;;;22.20;91.90;;;;;;5078393;28;20040;-79
2022/07/14 11:48:48;;;;;;;1.65;0.47;;;22.40;91.80;;;;;;5061382;28;20043;-79
2022/07/14 11:51:25;;;;;;;2.10;0.63;;;22.50;91.90;;;;;;5060893;28;20158;-80
2022/07/14 11:53:57;;;;;;;4.53;0.70;;;22.60;93.10;;;;;;5060702;28;20807;-79
2022/07/14 11:56:24;;;;;;;2.97;0.73;;;22.60;91.90;;;;;;5094958;28;20067;-78
2022/07/14 11:58:52;;;;;;;2.58;0.52;;;22.60;91.60;;;;;;5076272;28;20039;-76
2022/07/14 12:01:18;;;;;;;2.17;0.60;;;22.60;91.40;;;;;;5076316;28;20075;-76
2022/07/14 12:03:44;;;;;;;2.47;0.50;;;22.70;90.60;;;;;;5073118;28;20048;-77
2022/07/14 12:06:10;;;;;;;1.42;0.47;;;22.70;90.30;;;;;;5073760;28;20040;-76
2022/07/14 12:08:37;;;;;;;4.35;1.05;;;22.70;90.00;;;;;;5089323;28;20501;-76
2022/07/14 12:11:11;;;;;;;3.35;0.70;;;22.90;90.20;;;;;;5075804;28;20046;-76
2022/07/14 12:13:53;;;;;;;4.40;0.68;;;23.30;91.30;;;;;;5076169;28;20044;-76
2022/07/14 12:16:20;;;;;;;4.75;0.85;;;23.60;90.10;;;;;;5075615;28;20036;-76
2022/07/14 12:18:45;;;;;;;4.32;0.60;;;23.90;88.70;;;;;;5076035;28;20154;-76
2022/07/14 12:21:12;;;;;;;2.75;0.63;;;24.10;89.20;;;;;;5075515;28;20450;-77
2022/07/14 12:23:51;;;;;;;3.17;0.50;;;24.20;88.80;;;;;;5075568;28;20178;-77
2022/07/14 12:26:18;;;;;;;1.15;0.40;;;24.20;86.90;;;;;;5092840;28;20116;-77
2022/07/14 12:28:49;;;;;;;2.83;0.40;;;24.10;85.90;;;;;;5075769;28;20072;-77
2022/07/14 12:31:15;;;;;;;2.67;0.73;;;23.90;82.10;;;;;;5066305;28;20489;-77
2022/07/14 12:33:41;;;;;;;3.47;0.60;;;23.80;82.50;;;;;;5076017;28;20056;-79
2022/07/14 12:36:14;;;;;;;3.72;0.65;;;23.60;83.40;;;;;;5076508;28;20040;-78
2022/07/14 12:38:41;;;;;;;2.17;0.52;;;23.40;84.90;;;;;;5072809;28;20131;-79
2022/07/14 12:41:07;;;;;;;3.22;0.55;;;23.10;85.70;;;;;;5075717;28;20134;-78
2022/07/14 12:43:40;;;;;;;2.40;0.80;;;22.90;87.00;;;;;;5076102;28;20406;-78
2022/07/14 12:46:17;;;;;;;2.65;0.60;;;22.80;87.60;;;;;;5056599;28;20178;-78
2022/07/14 12:48:49;;;;;;;4.90;0.80;;;22.60;86.90;;;;;;5092509;28;20399;-78
2022/07/14 12:51:22;;;;;;;6.18;0.60;;;22.60;89.80;;;;;;5073935;28;20152;-77
2022/07/14 12:54:09;;;;;;;5.90;1.05;;;22.50;89.60;;;;;;5060235;28;20131;-79
2022/07/14 12:56:44;;;;;;;4.63;0.70;;;22.50;90.60;;;;;;5076738;28;20044;-78
2022/07/14 12:59:14;;;;;;;2.85;0.50;;;22.50;90.90;;;;;;5074111;28;20032;-78
2022/07/14 13:01:53;;;;;;;2.17;0.63;;;22.40;90.70;;;;;;5093281;28;20275;-79
2022/07/14 13:04:43;;;;;;;2.70;0.90;;;22.40;91.30;;;;;;5075087;28;20044;-78